sensor_id;sensor_type;location;lat;lon;timestamp;P1;durP1;ratioP1;P2;durP2;ratioP2
7583;SDS011;3833;41.764;26.204;2023-11-19T00:00:06;1.50;;;1.40;;
7583;SDS011;3833;41.764;26.204;2023-11-19T00:02:36;1.30;;;1.30;;
7583;SDS011;3833;41.764;26.204;2023-11-19T00:05:04;1.30;;;1.30;;
7583;SDS011;3833;41.764;26.204;2023-11-19T00:07:34;1.33;;;1.33;;
7583;SDS011;3833;41.764;26.204;2023-11-19T00:10:01;1.60;;;1.60;;
7583;SDS011;3833;41.764;26.204;2023-11-19T00:12:37;1.40;;;1.40;;
7583;SDS011;3833;41.764;26.204;2023-11-19T00:15:05;1.60;;;1.60;;
7583;SDS011;3833;41.764;26.204;2023-11-19T00:17:36;1.60;;;1.60;;
7583;SDS011;3833;41.764;26.204;2023-11-19T00:20:04;1.67;;;1.50;;
7583;SDS011;3833;41.764;26.204;2023-11-19T00:22:32;1.40;;;1.30;;
7583;SDS011;3833;41.764;26.204;2023-11-19T00:24:59;1.70;;;1.60;;
7583;SDS011;3833;41.764;26.204;2023-11-19T00:27:27;1.30;;;1.30;;
7583;SDS011;3833;41.764;26.204;2023-11-19T00:29:55;1.27;;;1.27;;
7583;SDS011;3833;41.764;26.204;2023-11-19T00:32:22;1.30;;;1.30;;
7583;SDS011;3833;41.764;26.204;2023-11-19T00:34:49;1.40;;;1.40;;
7583;SDS011;3833;41.764;26.204;2023-11-19T00:37:16;1.40;;;1.40;;
7583;SDS011;3833;41.764;26.204;2023-11-19T00:39:43;1.67;;;1.57;;
7583;SDS011;3833;41.764;26.204;2023-11-19T00:42:11;1.50;;;1.50;;
7583;SDS011;3833;41.764;26.204;2023-11-19T00:44:38;1.77;;;1.67;;
7583;SDS011;3833;41.764;26.204;2023-11-19T00:47:07;1.67;;;1.57;;
7583;SDS011;3833;41.764;26.204;2023-11-19T00:49:34;1.40;;;1.40;;
7583;SDS011;3833;41.764;26.204;2023-11-19T00:52:01;1.40;;;1.40;;
7583;SDS011;3833;41.764;26.204;2023-11-19T00:54:28;1.30;;;1.30;;
7583;SDS011;3833;41.764;26.204;2023-11-19T00:56:55;1.27;;;1.27;;
7583;SDS011;3833;41.764;26.204;2023-11-19T00:59:22;1.53;;;1.53;;
7583;SDS011;3833;41.764;26.204;2023-11-19T01:01:49;1.43;;;1.40;;
7583;SDS011;3833;41.764;26.204;2023-11-19T01:04:18;1.50;;;1.50;;
7583;SDS011;3833;41.764;26.204;2023-11-19T01:06:45;1.87;;;1.77;;
7583;SDS011;3833;41.764;26.204;2023-11-19T01:09:12;1.40;;;1.40;;
7583;SDS011;3833;41.764;26.204;2023-11-19T01:11:40;1.87;;;1.77;;
7583;SDS011;3833;41.764;26.204;2023-11-19T01:14:07;1.70;;;1.70;;
7583;SDS011;3833;41.764;26.204;2023-11-19T01:16:34;2.23;;;1.60;;
7583;SDS011;3833;41.764;26.204;2023-11-19T01:19:01;1.50;;;1.50;;
7583;SDS011;3833;41.764;26.204;2023-11-19T01:21:31;1.47;;;1.47;;
7583;SDS011;3833;41.764;26.204;2023-11-19T01:23:58;1.77;;;1.70;;
7583;SDS011;3833;41.764;26.204;2023-11-19T01:26:26;1.10;;;1.10;;
7583;SDS011;3833;41.764;26.204;2023-11-19T01:28:53;1.47;;;1.43;;
7583;SDS011;3833;41.764;26.204;2023-11-19T01:31:19;1.60;;;1.50;;
7583;SDS011;3833;41.764;26.204;2023-11-19T01:33:46;1.40;;;1.40;;
7583;SDS011;3833;41.764;26.204;2023-11-19T01:36:13;1.40;;;1.40;;
7583;SDS011;3833;41.764;26.204;2023-11-19T01:38:42;1.40;;;1.40;;
7583;SDS011;3833;41.764;26.204;2023-11-19T01:41:09;1.27;;;1.27;;
7583;SDS011;3833;41.764;26.204;2023-11-19T01:43:37;1.60;;;1.50;;
7583;SDS011;3833;41.764;26.204;2023-11-19T01:46:06;1.50;;;1.50;;
7583;SDS011;3833;41.764;26.204;2023-11-19T01:48:35;3.00;;;1.50;;
7583;SDS011;3833;41.764;26.204;2023-11-19T01:51:04;1.50;;;1.50;;
7583;SDS011;3833;41.764;26.204;2023-11-19T01:53:32;1.13;;;1.13;;
7583;SDS011;3833;41.764;26.204;2023-11-19T01:56:01;1.33;;;1.33;;
7583;SDS011;3833;41.764;26.204;2023-11-19T01:58:29;1.10;;;1.10;;
7583;SDS011;3833;41.764;26.204;2023-11-19T02:00:56;1.60;;;1.50;;
7583;SDS011;3833;41.764;26.204;2023-11-19T02:03:25;1.10;;;1.10;;
7583;SDS011;3833;41.764;26.204;2023-11-19T02:05:54;1.30;;;1.30;;
7583;SDS011;3833;41.764;26.204;2023-11-19T02:08:21;1.30;;;1.30;;
7583;SDS011;3833;41.764;26.204;2023-11-19T02:10:48;1.57;;;1.43;;
7583;SDS011;3833;41.764;26.204;2023-11-19T02:13:16;1.40;;;1.40;;
7583;SDS011;3833;41.764;26.204;2023-11-19T02:15:44;1.23;;;1.23;;
7583;SDS011;3833;41.764;26.204;2023-11-19T02:18:17;1.37;;;1.37;;
7583;SDS011;3833;41.764;26.204;2023-11-19T02:20:45;3.73;;;1.43;;
7583;SDS011;3833;41.764;26.204;2023-11-19T02:23:12;1.70;;;1.70;;
7583;SDS011;3833;41.764;26.204;2023-11-19T02:25:40;1.40;;;1.40;;
7583;SDS011;3833;41.764;26.204;2023-11-19T02:28:08;1.27;;;1.27;;
7583;SDS011;3833;41.764;26.204;2023-11-19T02:30:37;1.30;;;1.30;;
7583;SDS011;3833;41.764;26.204;2023-11-19T02:33:04;1.60;;;1.50;;
7583;SDS011;3833;41.764;26.204;2023-11-19T02:35:31;1.40;;;1.40;;
7583;SDS011;3833;41.764;26.204;2023-11-19T02:37:59;1.33;;;1.33;;
7583;SDS011;3833;41.764;26.204;2023-11-19T02:40:26;1.50;;;1.50;;
7583;SDS011;3833;41.764;26.204;2023-11-19T02:42:53;1.40;;;1.40;;
7583;SDS011;3833;41.764;26.204;2023-11-19T02:45:23;1.50;;;1.50;;
7583;SDS011;3833;41.764;26.204;2023-11-19T02:47:50;2.90;;;2.80;;
7583;SDS011;3833;41.764;26.204;2023-11-19T02:50:17;2.73;;;2.63;;
7583;SDS011;3833;41.764;26.204;2023-11-19T02:52:50;3.43;;;3.23;;
7583;SDS011;3833;41.764;26.204;2023-11-19T02:55:18;2.97;;;2.87;;
7583;SDS011;3833;41.764;26.204;2023-11-19T02:57:45;2.60;;;2.50;;
7583;SDS011;3833;41.764;26.204;2023-11-19T03:00:14;3.00;;;2.90;;
7583;SDS011;3833;41.764;26.204;2023-11-19T03:02:43;3.30;;;3.20;;
7583;SDS011;3833;41.764;26.204;2023-11-19T03:05:11;3.20;;;3.10;;
7583;SDS011;3833;41.764;26.204;2023-11-19T03:07:40;2.80;;;2.70;;
7583;SDS011;3833;41.764;26.204;2023-11-19T03:10:09;3.20;;;3.10;;
7583;SDS011;3833;41.764;26.204;2023-11-19T03:12:38;3.47;;;3.27;;
7583;SDS011;3833;41.764;26.204;2023-11-19T03:15:06;3.77;;;3.43;;
7583;SDS011;3833;41.764;26.204;2023-11-19T03:17:35;3.80;;;3.70;;
7583;SDS011;3833;41.764;26.204;2023-11-19T03:20:05;5.30;;;4.77;;
7583;SDS011;3833;41.764;26.204;2023-11-19T03:22:34;7.17;;;4.80;;
7583;SDS011;3833;41.764;26.204;2023-11-19T03:25:03;4.53;;;4.17;;
7583;SDS011;3833;41.764;26.204;2023-11-19T03:27:33;3.27;;;3.13;;
7583;SDS011;3833;41.764;26.204;2023-11-19T03:30:01;3.20;;;3.10;;
7583;SDS011;3833;41.764;26.204;2023-11-19T03:32:29;4.00;;;3.70;;
7583;SDS011;3833;41.764;26.204;2023-11-19T03:34:57;4.23;;;3.93;;
7583;SDS011;3833;41.764;26.204;2023-11-19T03:37:26;3.10;;;3.00;;
7583;SDS011;3833;41.764;26.204;2023-11-19T03:39:53;3.20;;;3.10;;
7583;SDS011;3833;41.764;26.204;2023-11-19T03:42:24;3.57;;;3.37;;
7583;SDS011;3833;41.764;26.204;2023-11-19T03:44:51;3.20;;;3.00;;
7583;SDS011;3833;41.764;26.204;2023-11-19T03:47:18;5.30;;;5.10;;
7583;SDS011;3833;41.764;26.204;2023-11-19T03:49:47;9.70;;;9.40;;
7583;SDS011;3833;41.764;26.204;2023-11-19T03:52:15;9.77;;;9.47;;
7583;SDS011;3833;41.764;26.204;2023-11-19T03:54:43;5.90;;;5.70;;
7583;SDS011;3833;41.764;26.204;2023-11-19T03:57:10;4.97;;;4.77;;
7583;SDS011;3833;41.764;26.204;2023-11-19T03:59:38;3.87;;;3.77;;
7583;SDS011;3833;41.764;26.204;2023-11-19T04:02:05;3.10;;;3.00;;
7583;SDS011;3833;41.764;26.204;2023-11-19T04:04:32;3.70;;;3.50;;
7583;SDS011;3833;41.764;26.204;2023-11-19T04:07:00;3.10;;;3.00;;
7583;SDS011;3833;41.764;26.204;2023-11-19T04:09:28;3.13;;;2.93;;
7583;SDS011;3833;41.764;26.204;2023-11-19T04:11:56;2.60;;;2.47;;
7583;SDS011;3833;41.764;26.204;2023-11-19T04:14:23;2.87;;;2.77;;
7583;SDS011;3833;41.764;26.204;2023-11-19T04:16:50;2.50;;;2.40;;
7583;SDS011;3833;41.764;26.204;2023-11-19T04:19:17;2.50;;;2.40;;
7583;SDS011;3833;41.764;26.204;2023-11-19T04:21:44;2.20;;;2.10;;
7583;SDS011;3833;41.764;26.204;2023-11-19T04:24:11;2.03;;;1.93;;
7583;SDS011;3833;41.764;26.204;2023-11-19T04:26:42;4.10;;;4.00;;
7583;SDS011;3833;41.764;26.204;2023-11-19T04:29:12;5.13;;;3.57;;
7583;SDS011;3833;41.764;26.204;2023-11-19T04:31:39;5.77;;;5.57;;
7583;SDS011;3833;41.764;26.204;2023-11-19T04:34:07;6.43;;;6.23;;
7583;SDS011;3833;41.764;26.204;2023-11-19T04:36:34;3.40;;;3.23;;
7583;SDS011;3833;41.764;26.204;2023-11-19T04:39:03;3.07;;;2.97;;
7583;SDS011;3833;41.764;26.204;2023-11-19T04:41:33;3.17;;;3.07;;
7583;SDS011;3833;41.764;26.204;2023-11-19T04:44:00;3.10;;;3.00;;
7583;SDS011;3833;41.764;26.204;2023-11-19T04:46:31;3.03;;;2.93;;
7583;SDS011;3833;41.764;26.204;2023-11-19T04:48:58;2.83;;;2.73;;
7583;SDS011;3833;41.764;26.204;2023-11-19T04:51:25;2.60;;;2.50;;
7583;SDS011;3833;41.764;26.204;2023-11-19T04:53:52;3.33;;;3.23;;
7583;SDS011;3833;41.764;26.204;2023-11-19T04:56:19;2.97;;;2.87;;
7583;SDS011;3833;41.764;26.204;2023-11-19T04:58:48;3.33;;;3.17;;
7583;SDS011;3833;41.764;26.204;2023-11-19T05:01:15;11.57;;;11.17;;
7583;SDS011;3833;41.764;26.204;2023-11-19T05:03:44;11.90;;;11.50;;
7583;SDS011;3833;41.764;26.204;2023-11-19T05:06:11;12.27;;;11.77;;
7583;SDS011;3833;41.764;26.204;2023-11-19T05:08:38;10.07;;;9.73;;
7583;SDS011;3833;41.764;26.204;2023-11-19T05:11:05;3.37;;;3.17;;
7583;SDS011;3833;41.764;26.204;2023-11-19T05:13:32;2.90;;;2.80;;
7583;SDS011;3833;41.764;26.204;2023-11-19T05:15:59;3.03;;;2.93;;
7583;SDS011;3833;41.764;26.204;2023-11-19T05:18:26;2.80;;;2.70;;
7583;SDS011;3833;41.764;26.204;2023-11-19T05:20:55;3.00;;;2.90;;
7583;SDS011;3833;41.764;26.204;2023-11-19T05:23:22;6.07;;;5.87;;
7583;SDS011;3833;41.764;26.204;2023-11-19T05:25:49;10.70;;;10.37;;
7583;SDS011;3833;41.764;26.204;2023-11-19T05:28:16;11.43;;;11.03;;
7583;SDS011;3833;41.764;26.204;2023-11-19T05:30:44;8.03;;;7.73;;
7583;SDS011;3833;41.764;26.204;2023-11-19T05:33:11;5.50;;;5.30;;
7583;SDS011;3833;41.764;26.204;2023-11-19T05:35:38;3.50;;;3.33;;
7583;SDS011;3833;41.764;26.204;2023-11-19T05:38:06;3.30;;;3.20;;
7583;SDS011;3833;41.764;26.204;2023-11-19T05:40:34;3.67;;;3.57;;
7583;SDS011;3833;41.764;26.204;2023-11-19T05:43:04;3.10;;;3.00;;
7583;SDS011;3833;41.764;26.204;2023-11-19T05:45:31;2.87;;;2.77;;
7583;SDS011;3833;41.764;26.204;2023-11-19T05:47:58;9.60;;;9.23;;
7583;SDS011;3833;41.764;26.204;2023-11-19T05:50:26;11.40;;;11.00;;
7583;SDS011;3833;41.764;26.204;2023-11-19T05:52:53;10.80;;;10.50;;
7583;SDS011;3833;41.764;26.204;2023-11-19T05:55:21;6.47;;;6.17;;
7583;SDS011;3833;41.764;26.204;2023-11-19T05:57:49;2.70;;;2.60;;
7583;SDS011;3833;41.764;26.204;2023-11-19T06:00:17;4.00;;;3.77;;
7583;SDS011;3833;41.764;26.204;2023-11-19T06:02:44;3.97;;;3.80;;
7583;SDS011;3833;41.764;26.204;2023-11-19T06:05:11;3.90;;;3.70;;
7583;SDS011;3833;41.764;26.204;2023-11-19T06:07:38;3.80;;;3.60;;
7583;SDS011;3833;41.764;26.204;2023-11-19T06:10:06;11.00;;;10.60;;
7583;SDS011;3833;41.764;26.204;2023-11-19T06:12:36;11.03;;;10.43;;
7583;SDS011;3833;41.764;26.204;2023-11-19T06:15:09;9.47;;;9.17;;
7583;SDS011;3833;41.764;26.204;2023-11-19T06:17:39;10.63;;;10.13;;
7583;SDS011;3833;41.764;26.204;2023-11-19T06:20:07;6.67;;;6.47;;
7583;SDS011;3833;41.764;26.204;2023-11-19T06:22:37;6.63;;;6.33;;
7583;SDS011;3833;41.764;26.204;2023-11-19T06:25:04;4.17;;;4.07;;
7583;SDS011;3833;41.764;26.204;2023-11-19T06:27:32;4.30;;;4.10;;
7583;SDS011;3833;41.764;26.204;2023-11-19T06:30:01;7.10;;;6.50;;
7583;SDS011;3833;41.764;26.204;2023-11-19T06:32:29;5.80;;;5.60;;
7583;SDS011;3833;41.764;26.204;2023-11-19T06:35:00;14.77;;;14.27;;
7583;SDS011;3833;41.764;26.204;2023-11-19T06:37:29;15.97;;;15.47;;
7583;SDS011;3833;41.764;26.204;2023-11-19T06:39:57;13.73;;;13.23;;
7583;SDS011;3833;41.764;26.204;2023-11-19T06:42:30;12.47;;;12.07;;
7583;SDS011;3833;41.764;26.204;2023-11-19T06:44:57;5.90;;;5.70;;
7583;SDS011;3833;41.764;26.204;2023-11-19T06:47:26;5.47;;;5.27;;
7583;SDS011;3833;41.764;26.204;2023-11-19T06:49:53;4.70;;;4.50;;
7583;SDS011;3833;41.764;26.204;2023-11-19T06:52:21;5.17;;;4.97;;
7583;SDS011;3833;41.764;26.204;2023-11-19T06:54:48;5.13;;;4.93;;
7583;SDS011;3833;41.764;26.204;2023-11-19T06:57:15;4.93;;;4.73;;
7583;SDS011;3833;41.764;26.204;2023-11-19T06:59:43;5.00;;;4.80;;
7583;SDS011;3833;41.764;26.204;2023-11-19T07:02:10;4.70;;;4.50;;
7583;SDS011;3833;41.764;26.204;2023-11-19T07:04:38;11.20;;;10.80;;
7583;SDS011;3833;41.764;26.204;2023-11-19T07:07:06;11.07;;;10.67;;
7583;SDS011;3833;41.764;26.204;2023-11-19T07:09:34;11.50;;;11.00;;
7583;SDS011;3833;41.764;26.204;2023-11-19T07:12:02;10.10;;;9.70;;
7583;SDS011;3833;41.764;26.204;2023-11-19T07:14:30;5.07;;;4.77;;
7583;SDS011;3833;41.764;26.204;2023-11-19T07:16:58;3.97;;;3.87;;
7583;SDS011;3833;41.764;26.204;2023-11-19T07:19:25;5.40;;;5.13;;
7583;SDS011;3833;41.764;26.204;2023-11-19T07:21:55;4.90;;;4.70;;
7583;SDS011;3833;41.764;26.204;2023-11-19T07:24:22;4.47;;;4.27;;
7583;SDS011;3833;41.764;26.204;2023-11-19T07:26:49;5.07;;;4.83;;
7583;SDS011;3833;41.764;26.204;2023-11-19T07:29:17;4.20;;;4.10;;
7583;SDS011;3833;41.764;26.204;2023-11-19T07:31:44;4.83;;;4.63;;
7583;SDS011;3833;41.764;26.204;2023-11-19T07:34:11;5.10;;;4.90;;
7583;SDS011;3833;41.764;26.204;2023-11-19T07:36:39;3.87;;;3.77;;
7583;SDS011;3833;41.764;26.204;2023-11-19T07:39:09;5.00;;;4.80;;
7583;SDS011;3833;41.764;26.204;2023-11-19T07:41:36;3.50;;;3.30;;
7583;SDS011;3833;41.764;26.204;2023-11-19T07:44:03;5.80;;;5.60;;
7583;SDS011;3833;41.764;26.204;2023-11-19T07:46:31;9.07;;;8.77;;
7583;SDS011;3833;41.764;26.204;2023-11-19T07:49:01;7.70;;;7.40;;
7583;SDS011;3833;41.764;26.204;2023-11-19T07:51:29;9.57;;;9.27;;
7583;SDS011;3833;41.764;26.204;2023-11-19T07:53:59;6.33;;;6.13;;
7583;SDS011;3833;41.764;26.204;2023-11-19T07:56:28;3.90;;;3.80;;
7583;SDS011;3833;41.764;26.204;2023-11-19T07:58:56;4.03;;;3.83;;
7583;SDS011;3833;41.764;26.204;2023-11-19T08:01:23;4.67;;;4.47;;
7583;SDS011;3833;41.764;26.204;2023-11-19T08:03:50;4.33;;;4.23;;
7583;SDS011;3833;41.764;26.204;2023-11-19T08:06:19;4.27;;;4.17;;
7583;SDS011;3833;41.764;26.204;2023-11-19T08:08:46;4.40;;;4.30;;
7583;SDS011;3833;41.764;26.204;2023-11-19T08:11:14;4.80;;;4.60;;
7583;SDS011;3833;41.764;26.204;2023-11-19T08:13:43;4.30;;;4.10;;
7583;SDS011;3833;41.764;26.204;2023-11-19T08:16:12;3.53;;;3.43;;
7583;SDS011;3833;41.764;26.204;2023-11-19T08:18:41;3.03;;;2.93;;
7583;SDS011;3833;41.764;26.204;2023-11-19T08:21:10;3.93;;;3.63;;
7583;SDS011;3833;41.764;26.204;2023-11-19T08:23:39;4.37;;;4.27;;
7583;SDS011;3833;41.764;26.204;2023-11-19T08:26:06;3.80;;;3.70;;
7583;SDS011;3833;41.764;26.204;2023-11-19T08:28:35;4.47;;;4.27;;
7583;SDS011;3833;41.764;26.204;2023-11-19T08:31:04;4.00;;;3.90;;
7583;SDS011;3833;41.764;26.204;2023-11-19T08:33:31;4.20;;;4.10;;
7583;SDS011;3833;41.764;26.204;2023-11-19T08:35:58;4.40;;;4.20;;
7583;SDS011;3833;41.764;26.204;2023-11-19T08:38:26;5.47;;;5.17;;
7583;SDS011;3833;41.764;26.204;2023-11-19T08:40:53;6.10;;;5.80;;
7583;SDS011;3833;41.764;26.204;2023-11-19T08:43:24;4.93;;;4.63;;
7583;SDS011;3833;41.764;26.204;2023-11-19T08:45:52;3.90;;;3.80;;
7583;SDS011;3833;41.764;26.204;2023-11-19T08:48:24;4.00;;;3.80;;
7583;SDS011;3833;41.764;26.204;2023-11-19T08:50:55;4.40;;;4.20;;
7583;SDS011;3833;41.764;26.204;2023-11-19T08:53:22;4.10;;;4.00;;
7583;SDS011;3833;41.764;26.204;2023-11-19T08:55:49;4.17;;;3.97;;
7583;SDS011;3833;41.764;26.204;2023-11-19T08:58:17;3.50;;;3.40;;
7583;SDS011;3833;41.764;26.204;2023-11-19T09:00:44;3.90;;;3.80;;
7583;SDS011;3833;41.764;26.204;2023-11-19T09:03:13;5.17;;;4.97;;
7583;SDS011;3833;41.764;26.204;2023-11-19T09:05:43;6.67;;;6.37;;
7583;SDS011;3833;41.764;26.204;2023-11-19T09:08:12;6.03;;;5.83;;
7583;SDS011;3833;41.764;26.204;2023-11-19T09:10:39;6.03;;;5.83;;
7583;SDS011;3833;41.764;26.204;2023-11-19T09:13:07;4.50;;;4.40;;
7583;SDS011;3833;41.764;26.204;2023-11-19T09:15:34;3.57;;;3.40;;
7583;SDS011;3833;41.764;26.204;2023-11-19T09:18:01;1.90;;;1.80;;
7583;SDS011;3833;41.764;26.204;2023-11-19T09:20:30;1.80;;;1.70;;
7583;SDS011;3833;41.764;26.204;2023-11-19T09:23:04;4.70;;;4.50;;
7583;SDS011;3833;41.764;26.204;2023-11-19T09:25:33;4.73;;;4.53;;
7583;SDS011;3833;41.764;26.204;2023-11-19T09:28:00;5.27;;;4.97;;
7583;SDS011;3833;41.764;26.204;2023-11-19T09:30:30;5.20;;;5.00;;
7583;SDS011;3833;41.764;26.204;2023-11-19T09:32:59;5.50;;;5.30;;
7583;SDS011;3833;41.764;26.204;2023-11-19T09:35:27;5.43;;;5.23;;
7583;SDS011;3833;41.764;26.204;2023-11-19T09:37:54;5.40;;;5.20;;
7583;SDS011;3833;41.764;26.204;2023-11-19T09:40:25;5.83;;;5.53;;
7583;SDS011;3833;41.764;26.204;2023-11-19T09:42:56;5.30;;;5.10;;
7583;SDS011;3833;41.764;26.204;2023-11-19T09:45:24;5.70;;;5.50;;
7583;SDS011;3833;41.764;26.204;2023-11-19T09:47:54;5.47;;;5.27;;
7583;SDS011;3833;41.764;26.204;2023-11-19T09:50:23;9.00;;;8.70;;
7583;SDS011;3833;41.764;26.204;2023-11-19T09:52:50;10.17;;;9.77;;
7583;SDS011;3833;41.764;26.204;2023-11-19T09:55:17;11.10;;;10.70;;
7583;SDS011;3833;41.764;26.204;2023-11-19T09:57:46;11.87;;;11.47;;
7583;SDS011;3833;41.764;26.204;2023-11-19T10:00:15;6.60;;;6.30;;
7583;SDS011;3833;41.764;26.204;2023-11-19T10:02:44;5.50;;;5.30;;
7583;SDS011;3833;41.764;26.204;2023-11-19T10:05:12;6.63;;;6.33;;
7583;SDS011;3833;41.764;26.204;2023-11-19T10:07:40;5.70;;;5.50;;
7583;SDS011;3833;41.764;26.204;2023-11-19T10:10:10;5.53;;;5.23;;
7583;SDS011;3833;41.764;26.204;2023-11-19T10:12:40;5.47;;;5.23;;
7583;SDS011;3833;41.764;26.204;2023-11-19T10:15:09;5.90;;;5.70;;
7583;SDS011;3833;41.764;26.204;2023-11-19T10:17:46;5.50;;;5.30;;
7583;SDS011;3833;41.764;26.204;2023-11-19T10:20:13;5.20;;;5.00;;
7583;SDS011;3833;41.764;26.204;2023-11-19T10:22:41;6.30;;;6.00;;
7583;SDS011;3833;41.764;26.204;2023-11-19T10:25:21;6.20;;;5.67;;
7583;SDS011;3833;41.764;26.204;2023-11-19T10:27:49;5.60;;;5.30;;
7583;SDS011;3833;41.764;26.204;2023-11-19T10:30:19;5.27;;;5.07;;
7583;SDS011;3833;41.764;26.204;2023-11-19T10:33:05;4.80;;;4.60;;
7583;SDS011;3833;41.764;26.204;2023-11-19T10:35:33;5.17;;;4.97;;
7583;SDS011;3833;41.764;26.204;2023-11-19T10:38:00;4.67;;;4.50;;
7583;SDS011;3833;41.764;26.204;2023-11-19T10:40:40;4.67;;;4.53;;
7583;SDS011;3833;41.764;26.204;2023-11-19T10:43:07;5.33;;;5.07;;
7583;SDS011;3833;41.764;26.204;2023-11-19T10:45:36;5.20;;;4.90;;
7583;SDS011;3833;41.764;26.204;2023-11-19T10:48:05;6.47;;;6.17;;
7583;SDS011;3833;41.764;26.204;2023-11-19T10:50:33;5.90;;;5.70;;
7583;SDS011;3833;41.764;26.204;2023-11-19T10:53:01;5.30;;;5.00;;
7583;SDS011;3833;41.764;26.204;2023-11-19T10:55:30;5.70;;;5.47;;
7583;SDS011;3833;41.764;26.204;2023-11-19T10:57:58;5.13;;;4.93;;
7583;SDS011;3833;41.764;26.204;2023-11-19T11:00:28;5.30;;;5.10;;
7583;SDS011;3833;41.764;26.204;2023-11-19T11:03:01;5.00;;;4.80;;
7583;SDS011;3833;41.764;26.204;2023-11-19T11:05:29;4.50;;;4.30;;
7583;SDS011;3833;41.764;26.204;2023-11-19T11:08:00;4.90;;;4.70;;
7583;SDS011;3833;41.764;26.204;2023-11-19T11:10:29;5.20;;;5.00;;
7583;SDS011;3833;41.764;26.204;2023-11-19T11:13:01;5.30;;;5.10;;
7583;SDS011;3833;41.764;26.204;2023-11-19T11:15:30;4.53;;;4.33;;
7583;SDS011;3833;41.764;26.204;2023-11-19T11:17:59;4.27;;;4.17;;
7583;SDS011;3833;41.764;26.204;2023-11-19T11:20:28;4.57;;;4.37;;
7583;SDS011;3833;41.764;26.204;2023-11-19T11:23:01;4.47;;;4.30;;
7583;SDS011;3833;41.764;26.204;2023-11-19T11:25:48;4.83;;;4.63;;
7583;SDS011;3833;41.764;26.204;2023-11-19T11:28:24;4.80;;;4.60;;
7583;SDS011;3833;41.764;26.204;2023-11-19T11:31:03;4.40;;;4.30;;
7583;SDS011;3833;41.764;26.204;2023-11-19T11:33:58;5.80;;;5.50;;
7583;SDS011;3833;41.764;26.204;2023-11-19T11:36:31;4.60;;;4.40;;
7583;SDS011;3833;41.764;26.204;2023-11-19T11:39:07;5.13;;;4.93;;
7583;SDS011;3833;41.764;26.204;2023-11-19T11:41:34;5.40;;;5.10;;
7583;SDS011;3833;41.764;26.204;2023-11-19T11:44:01;5.30;;;5.10;;
7583;SDS011;3833;41.764;26.204;2023-11-19T11:49:26;5.20;;;5.00;;
7583;SDS011;3833;41.764;26.204;2023-11-19T11:52:02;4.60;;;4.40;;
7583;SDS011;3833;41.764;26.204;2023-11-19T11:54:30;4.83;;;4.63;;
7583;SDS011;3833;41.764;26.204;2023-11-19T11:57:07;5.20;;;5.00;;
7583;SDS011;3833;41.764;26.204;2023-11-19T11:59:47;5.70;;;5.40;;
7583;SDS011;3833;41.764;26.204;2023-11-19T12:02:17;4.67;;;4.47;;
7583;SDS011;3833;41.764;26.204;2023-11-19T12:04:51;6.03;;;5.63;;
7583;SDS011;3833;41.764;26.204;2023-11-19T12:07:19;5.23;;;4.93;;
7583;SDS011;3833;41.764;26.204;2023-11-19T12:09:48;5.03;;;4.73;;
7583;SDS011;3833;41.764;26.204;2023-11-19T12:12:18;4.20;;;4.00;;
7583;SDS011;3833;41.764;26.204;2023-11-19T12:15:06;4.33;;;4.13;;
7583;SDS011;3833;41.764;26.204;2023-11-19T12:17:36;4.53;;;4.30;;
7583;SDS011;3833;41.764;26.204;2023-11-19T12:20:08;4.40;;;4.20;;
7583;SDS011;3833;41.764;26.204;2023-11-19T12:22:37;4.53;;;4.33;;
7583;SDS011;3833;41.764;26.204;2023-11-19T12:25:05;4.87;;;4.67;;
7583;SDS011;3833;41.764;26.204;2023-11-19T12:27:34;4.43;;;4.23;;
7583;SDS011;3833;41.764;26.204;2023-11-19T12:30:02;4.60;;;4.50;;
7583;SDS011;3833;41.764;26.204;2023-11-19T12:32:37;4.70;;;4.50;;
7583;SDS011;3833;41.764;26.204;2023-11-19T12:35:05;2.83;;;2.73;;
7583;SDS011;3833;41.764;26.204;2023-11-19T12:37:41;2.90;;;2.80;;
7583;SDS011;3833;41.764;26.204;2023-11-19T12:40:12;2.90;;;2.80;;
7583;SDS011;3833;41.764;26.204;2023-11-19T12:42:42;3.00;;;2.90;;
7583;SDS011;3833;41.764;26.204;2023-11-19T12:45:10;3.20;;;3.10;;
7583;SDS011;3833;41.764;26.204;2023-11-19T12:47:38;3.60;;;3.40;;
7583;SDS011;3833;41.764;26.204;2023-11-19T12:50:08;3.50;;;3.20;;
7583;SDS011;3833;41.764;26.204;2023-11-19T12:52:36;3.20;;;3.10;;
7583;SDS011;3833;41.764;26.204;2023-11-19T12:55:03;3.30;;;3.20;;
7583;SDS011;3833;41.764;26.204;2023-11-19T12:57:38;3.40;;;3.30;;
7583;SDS011;3833;41.764;26.204;2023-11-19T13:00:06;3.40;;;3.30;;
7583;SDS011;3833;41.764;26.204;2023-11-19T13:02:46;3.20;;;3.10;;
7583;SDS011;3833;41.764;26.204;2023-11-19T13:05:25;2.90;;;2.80;;
7583;SDS011;3833;41.764;26.204;2023-11-19T13:08:00;2.93;;;2.83;;
7583;SDS011;3833;41.764;26.204;2023-11-19T13:10:28;3.33;;;3.23;;
7583;SDS011;3833;41.764;26.204;2023-11-19T13:13:02;3.00;;;2.90;;
7583;SDS011;3833;41.764;26.204;2023-11-19T13:15:30;3.40;;;3.20;;
7583;SDS011;3833;41.764;26.204;2023-11-19T13:17:57;3.60;;;3.50;;
7583;SDS011;3833;41.764;26.204;2023-11-19T13:20:26;3.13;;;3.03;;
7583;SDS011;3833;41.764;26.204;2023-11-19T13:22:54;3.07;;;2.97;;
7583;SDS011;3833;41.764;26.204;2023-11-19T13:25:24;3.50;;;3.30;;
7583;SDS011;3833;41.764;26.204;2023-11-19T13:27:51;3.50;;;3.30;;
7583;SDS011;3833;41.764;26.204;2023-11-19T13:30:19;3.10;;;3.00;;
7583;SDS011;3833;41.764;26.204;2023-11-19T13:32:46;3.90;;;3.70;;
7583;SDS011;3833;41.764;26.204;2023-11-19T13:35:13;3.83;;;3.63;;
7583;SDS011;3833;41.764;26.204;2023-11-19T13:37:41;3.60;;;3.37;;
7583;SDS011;3833;41.764;26.204;2023-11-19T13:40:09;3.13;;;2.93;;
7583;SDS011;3833;41.764;26.204;2023-11-19T13:42:39;2.90;;;2.80;;
7583;SDS011;3833;41.764;26.204;2023-11-19T13:45:07;3.13;;;2.93;;
7583;SDS011;3833;41.764;26.204;2023-11-19T13:47:38;3.00;;;2.90;;
7583;SDS011;3833;41.764;26.204;2023-11-19T13:50:07;3.40;;;3.20;;
7583;SDS011;3833;41.764;26.204;2023-11-19T13:52:35;2.90;;;2.80;;
7583;SDS011;3833;41.764;26.204;2023-11-19T13:55:06;3.70;;;3.50;;
7583;SDS011;3833;41.764;26.204;2023-11-19T13:57:34;4.07;;;3.87;;
7583;SDS011;3833;41.764;26.204;2023-11-19T14:00:02;3.40;;;3.30;;
7583;SDS011;3833;41.764;26.204;2023-11-19T14:02:31;3.30;;;3.20;;
7583;SDS011;3833;41.764;26.204;2023-11-19T14:04:58;3.40;;;3.20;;
7583;SDS011;3833;41.764;26.204;2023-11-19T14:07:25;3.93;;;3.73;;
7583;SDS011;3833;41.764;26.204;2023-11-19T14:09:53;3.77;;;3.57;;
7583;SDS011;3833;41.764;26.204;2023-11-19T14:12:21;3.10;;;3.00;;
7583;SDS011;3833;41.764;26.204;2023-11-19T14:14:49;2.67;;;2.47;;
7583;SDS011;3833;41.764;26.204;2023-11-19T14:17:16;3.13;;;3.03;;
7583;SDS011;3833;41.764;26.204;2023-11-19T14:19:43;3.80;;;3.60;;
7583;SDS011;3833;41.764;26.204;2023-11-19T14:22:11;3.50;;;3.40;;
7583;SDS011;3833;41.764;26.204;2023-11-19T14:24:39;3.57;;;3.40;;
7583;SDS011;3833;41.764;26.204;2023-11-19T14:27:08;3.50;;;3.40;;
7583;SDS011;3833;41.764;26.204;2023-11-19T14:29:37;3.60;;;3.50;;
7583;SDS011;3833;41.764;26.204;2023-11-19T14:32:05;3.37;;;3.27;;
7583;SDS011;3833;41.764;26.204;2023-11-19T14:34:32;2.30;;;2.20;;
7583;SDS011;3833;41.764;26.204;2023-11-19T14:36:59;2.20;;;2.10;;
7583;SDS011;3833;41.764;26.204;2023-11-19T14:39:28;2.83;;;2.73;;
7583;SDS011;3833;41.764;26.204;2023-11-19T14:41:56;2.90;;;2.70;;
7583;SDS011;3833;41.764;26.204;2023-11-19T14:44:26;2.50;;;2.30;;
7583;SDS011;3833;41.764;26.204;2023-11-19T14:46:56;2.37;;;2.27;;
7583;SDS011;3833;41.764;26.204;2023-11-19T14:49:23;2.63;;;2.53;;
7583;SDS011;3833;41.764;26.204;2023-11-19T14:51:52;2.80;;;2.60;;
7583;SDS011;3833;41.764;26.204;2023-11-19T14:54:19;2.50;;;2.40;;
7583;SDS011;3833;41.764;26.204;2023-11-19T14:56:47;3.43;;;3.33;;
7583;SDS011;3833;41.764;26.204;2023-11-19T14:59:14;3.47;;;3.37;;
7583;SDS011;3833;41.764;26.204;2023-11-19T15:01:41;4.00;;;3.90;;
7583;SDS011;3833;41.764;26.204;2023-11-19T15:04:09;3.73;;;3.53;;
7583;SDS011;3833;41.764;26.204;2023-11-19T15:06:36;3.03;;;2.90;;
7583;SDS011;3833;41.764;26.204;2023-11-19T15:09:04;2.70;;;2.60;;
7583;SDS011;3833;41.764;26.204;2023-11-19T15:11:33;2.80;;;2.70;;